sensor_id;sensor_type;location;lat;lon;timestamp;P1;durP1;ratioP1;P2;durP2;ratioP2
36923;SDS011;22841;50.252;18.688;2023-08-30T00:00:56;71.50;;;19.65;;
36923;SDS011;22841;50.252;18.688;2023-08-30T00:03:22;76.45;;;18.52;;
36923;SDS011;22841;50.252;18.688;2023-08-30T00:05:48;85.22;;;19.63;;
36923;SDS011;22841;50.252;18.688;2023-08-30T00:08:14;52.97;;;18.17;;
36923;SDS011;22841;50.252;18.688;2023-08-30T00:10:44;43.50;;;17.25;;
36923;SDS011;22841;50.252;18.688;2023-08-30T00:13:10;62.00;;;18.98;;
36923;SDS011;22841;50.252;18.688;2023-08-30T00:15:37;75.35;;;19.92;;
36923;SDS011;22841;50.252;18.688;2023-08-30T00:18:03;51.47;;;17.40;;
36923;SDS011;22841;50.252;18.688;2023-08-30T00:20:29;76.93;;;20.20;;
36923;SDS011;22841;50.252;18.688;2023-08-30T00:22:55;63.10;;;18.35;;
36923;SDS011;22841;50.252;18.688;2023-08-30T00:25:23;49.70;;;17.08;;
36923;SDS011;22841;50.252;18.688;2023-08-30T00:27:49;32.47;;;14.35;;
36923;SDS011;22841;50.252;18.688;2023-08-30T00:30:16;37.40;;;15.77;;
36923;SDS011;22841;50.252;18.688;2023-08-30T00:32:42;40.95;;;16.50;;
36923;SDS011;22841;50.252;18.688;2023-08-30T00:35:08;42.03;;;16.75;;
36923;SDS011;22841;50.252;18.688;2023-08-30T00:37:34;40.45;;;16.75;;
36923;SDS011;22841;50.252;18.688;2023-08-30T00:40:00;35.97;;;17.50;;
36923;SDS011;22841;50.252;18.688;2023-08-30T00:42:26;31.73;;;17.42;;
36923;SDS011;22841;50.252;18.688;2023-08-30T00:44:53;32.25;;;16.08;;
36923;SDS011;22841;50.252;18.688;2023-08-30T00:47:19;107.55;;;21.70;;
36923;SDS011;22841;50.252;18.688;2023-08-30T00:49:46;44.10;;;18.10;;
36923;SDS011;22841;50.252;18.688;2023-08-30T00:52:13;41.50;;;19.50;;
36923;SDS011;22841;50.252;18.688;2023-08-30T00:54:39;59.88;;;22.52;;
36923;SDS011;22841;50.252;18.688;2023-08-30T00:57:06;45.53;;;20.25;;
36923;SDS011;22841;50.252;18.688;2023-08-30T00:59:34;51.78;;;22.13;;
36923;SDS011;22841;50.252;18.688;2023-08-30T01:02:02;67.88;;;23.35;;
36923;SDS011;22841;50.252;18.688;2023-08-30T01:04:30;41.85;;;20.15;;
36923;SDS011;22841;50.252;18.688;2023-08-30T01:06:56;54.85;;;20.85;;
36923;SDS011;22841;50.252;18.688;2023-08-30T01:09:24;55.47;;;18.75;;
36923;SDS011;22841;50.252;18.688;2023-08-30T01:12:03;32.38;;;17.67;;
36923;SDS011;22841;50.252;18.688;2023-08-30T01:17:26;35.05;;;15.77;;
36923;SDS011;22841;50.252;18.688;2023-08-30T01:20:04;31.67;;;15.73;;
36923;SDS011;22841;50.252;18.688;2023-08-30T01:28:26;36.25;;;17.17;;
36923;SDS011;22841;50.252;18.688;2023-08-30T01:30:55;52.08;;;17.83;;
36923;SDS011;22841;50.252;18.688;2023-08-30T01:33:24;32.78;;;16.73;;
36923;SDS011;22841;50.252;18.688;2023-08-30T01:35:52;38.25;;;17.05;;
36923;SDS011;22841;50.252;18.688;2023-08-30T01:38:20;34.95;;;17.10;;
36923;SDS011;22841;50.252;18.688;2023-08-30T01:40:47;34.75;;;16.20;;
36923;SDS011;22841;50.252;18.688;2023-08-30T01:43:14;33.40;;;16.10;;
36923;SDS011;22841;50.252;18.688;2023-08-30T01:45:41;31.13;;;16.80;;
36923;SDS011;22841;50.252;18.688;2023-08-30T01:48:09;38.42;;;18.55;;
36923;SDS011;22841;50.252;18.688;2023-08-30T01:50:41;43.85;;;20.85;;
36923;SDS011;22841;50.252;18.688;2023-08-30T01:53:08;44.38;;;19.63;;
36923;SDS011;22841;50.252;18.688;2023-08-30T01:55:36;54.83;;;21.10;;
36923;SDS011;22841;50.252;18.688;2023-08-30T01:58:04;41.65;;;18.95;;
36923;SDS011;22841;50.252;18.688;2023-08-30T02:00:31;36.63;;;18.08;;
36923;SDS011;22841;50.252;18.688;2023-08-30T02:02:57;25.33;;;15.65;;
36923;SDS011;22841;50.252;18.688;2023-08-30T02:05:23;30.13;;;16.63;;
36923;SDS011;22841;50.252;18.688;2023-08-30T02:10:40;42.42;;;16.05;;
36923;SDS011;22841;50.252;18.688;2023-08-30T02:13:10;48.67;;;16.38;;
36923;SDS011;22841;50.252;18.688;2023-08-30T02:15:37;38.08;;;15.80;;
36923;SDS011;22841;50.252;18.688;2023-08-30T02:18:07;27.85;;;15.02;;
36923;SDS011;22841;50.252;18.688;2023-08-30T02:20:34;30.42;;;14.70;;
36923;SDS011;22841;50.252;18.688;2023-08-30T02:23:00;30.92;;;14.90;;
36923;SDS011;22841;50.252;18.688;2023-08-30T02:25:26;66.03;;;17.88;;
36923;SDS011;22841;50.252;18.688;2023-08-30T02:27:52;37.35;;;17.88;;
36923;SDS011;22841;50.252;18.688;2023-08-30T02:30:18;37.17;;;17.38;;
36923;SDS011;22841;50.252;18.688;2023-08-30T02:32:45;33.08;;;17.58;;
36923;SDS011;22841;50.252;18.688;2023-08-30T02:35:11;33.80;;;18.40;;
36923;SDS011;22841;50.252;18.688;2023-08-30T02:37:37;45.08;;;19.88;;
36923;SDS011;22841;50.252;18.688;2023-08-30T02:40:05;49.47;;;22.35;;
36923;SDS011;22841;50.252;18.688;2023-08-30T02:42:32;40.92;;;21.50;;
36923;SDS011;22841;50.252;18.688;2023-08-30T02:44:58;49.88;;;23.70;;
36923;SDS011;22841;50.252;18.688;2023-08-30T02:47:24;60.38;;;24.55;;
36923;SDS011;22841;50.252;18.688;2023-08-30T02:49:51;74.70;;;26.15;;
36923;SDS011;22841;50.252;18.688;2023-08-30T02:52:17;74.15;;;28.27;;
36923;SDS011;22841;50.252;18.688;2023-08-30T02:54:43;111.85;;;27.83;;
36923;SDS011;22841;50.252;18.688;2023-08-30T02:57:09;97.57;;;28.38;;
36923;SDS011;22841;50.252;18.688;2023-08-30T02:59:35;60.45;;;24.20;;
36923;SDS011;22841;50.252;18.688;2023-08-30T03:02:01;55.58;;;23.98;;
36923;SDS011;22841;50.252;18.688;2023-08-30T03:04:28;68.03;;;23.52;;
36923;SDS011;22841;50.252;18.688;2023-08-30T03:06:54;100.45;;;25.40;;
36923;SDS011;22841;50.252;18.688;2023-08-30T03:09:20;68.40;;;21.55;;
36923;SDS011;22841;50.252;18.688;2023-08-30T03:11:46;65.20;;;19.48;;
36923;SDS011;22841;50.252;18.688;2023-08-30T03:14:12;38.70;;;16.65;;
36923;SDS011;22841;50.252;18.688;2023-08-30T03:16:39;47.03;;;16.85;;
36923;SDS011;22841;50.252;18.688;2023-08-30T03:19:05;51.22;;;17.85;;
36923;SDS011;22841;50.252;18.688;2023-08-30T03:21:31;41.92;;;16.95;;
36923;SDS011;22841;50.252;18.688;2023-08-30T03:23:57;41.50;;;16.15;;
36923;SDS011;22841;50.252;18.688;2023-08-30T03:26:23;37.53;;;15.68;;
36923;SDS011;22841;50.252;18.688;2023-08-30T03:28:50;37.67;;;16.08;;
36923;SDS011;22841;50.252;18.688;2023-08-30T03:33:42;47.95;;;14.95;;
36923;SDS011;22841;50.252;18.688;2023-08-30T03:36:12;21.75;;;12.43;;
36923;SDS011;22841;50.252;18.688;2023-08-30T03:38:40;32.38;;;12.98;;
36923;SDS011;22841;50.252;18.688;2023-08-30T03:41:06;30.30;;;12.68;;
36923;SDS011;22841;50.252;18.688;2023-08-30T03:43:33;20.23;;;11.15;;
36923;SDS011;22841;50.252;18.688;2023-08-30T03:46:00;21.70;;;10.23;;
36923;SDS011;22841;50.252;18.688;2023-08-30T03:48:26;19.05;;;9.15;;
36923;SDS011;22841;50.252;18.688;2023-08-30T03:50:53;18.63;;;8.55;;
36923;SDS011;22841;50.252;18.688;2023-08-30T03:53:20;17.30;;;9.18;;
36923;SDS011;22841;50.252;18.688;2023-08-30T03:55:47;21.67;;;9.20;;
36923;SDS011;22841;50.252;18.688;2023-08-30T03:58:18;17.88;;;8.40;;
36923;SDS011;22841;50.252;18.688;2023-08-30T04:00:44;19.63;;;8.75;;
36923;SDS011;22841;50.252;18.688;2023-08-30T04:03:13;17.05;;;8.73;;
36923;SDS011;22841;50.252;18.688;2023-08-30T04:05:40;18.95;;;9.02;;
36923;SDS011;22841;50.252;18.688;2023-08-30T04:08:07;15.48;;;8.50;;
36923;SDS011;22841;50.252;18.688;2023-08-30T04:10:37;18.05;;;7.63;;
36923;SDS011;22841;50.252;18.688;2023-08-30T04:13:04;15.10;;;7.78;;
36923;SDS011;22841;50.252;18.688;2023-08-30T04:15:37;8.95;;;6.22;;
36923;SDS011;22841;50.252;18.688;2023-08-30T04:18:04;16.85;;;6.68;;
36923;SDS011;22841;50.252;18.688;2023-08-30T04:20:31;11.02;;;6.50;;
36923;SDS011;22841;50.252;18.688;2023-08-30T04:22:58;16.60;;;7.15;;
36923;SDS011;22841;50.252;18.688;2023-08-30T04:25:27;10.20;;;6.10;;
36923;SDS011;22841;50.252;18.688;2023-08-30T04:27:54;11.43;;;6.50;;
36923;SDS011;22841;50.252;18.688;2023-08-30T04:30:20;11.73;;;6.65;;
36923;SDS011;22841;50.252;18.688;2023-08-30T04:32:46;8.77;;;6.13;;
36923;SDS011;22841;50.252;18.688;2023-08-30T04:35:12;17.77;;;7.47;;
36923;SDS011;22841;50.252;18.688;2023-08-30T04:37:38;20.17;;;8.73;;
36923;SDS011;22841;50.252;18.688;2023-08-30T04:40:06;9.82;;;7.25;;
36923;SDS011;22841;50.252;18.688;2023-08-30T04:42:34;12.38;;;7.40;;
36923;SDS011;22841;50.252;18.688;2023-08-30T04:45:01;10.93;;;6.32;;
36923;SDS011;22841;50.252;18.688;2023-08-30T04:47:28;8.20;;;5.00;;
36923;SDS011;22841;50.252;18.688;2023-08-30T04:49:55;9.93;;;5.38;;
36923;SDS011;22841;50.252;18.688;2023-08-30T04:52:22;9.52;;;4.55;;
36923;SDS011;22841;50.252;18.688;2023-08-30T04:54:48;5.60;;;3.70;;
36923;SDS011;22841;50.252;18.688;2023-08-30T04:57:14;6.53;;;3.78;;
36923;SDS011;22841;50.252;18.688;2023-08-30T04:59:42;7.95;;;3.53;;
36923;SDS011;22841;50.252;18.688;2023-08-30T05:02:08;4.53;;;3.47;;
36923;SDS011;22841;50.252;18.688;2023-08-30T05:04:35;5.50;;;3.83;;
36923;SDS011;22841;50.252;18.688;2023-08-30T05:07:01;5.00;;;3.65;;
36923;SDS011;22841;50.252;18.688;2023-08-30T05:09:29;8.25;;;4.82;;
36923;SDS011;22841;50.252;18.688;2023-08-30T05:11:55;10.98;;;5.40;;
36923;SDS011;22841;50.252;18.688;2023-08-30T05:14:22;9.60;;;5.28;;
36923;SDS011;22841;50.252;18.688;2023-08-30T05:16:51;7.03;;;4.72;;
36923;SDS011;22841;50.252;18.688;2023-08-30T05:19:17;7.65;;;4.60;;
36923;SDS011;22841;50.252;18.688;2023-08-30T05:21:43;9.52;;;4.80;;
36923;SDS011;22841;50.252;18.688;2023-08-30T05:24:09;11.65;;;4.10;;
36923;SDS011;22841;50.252;18.688;2023-08-30T05:26:35;5.75;;;4.15;;
36923;SDS011;22841;50.252;18.688;2023-08-30T05:29:02;8.52;;;4.55;;
36923;SDS011;22841;50.252;18.688;2023-08-30T05:31:29;4.55;;;4.00;;
36923;SDS011;22841;50.252;18.688;2023-08-30T05:33:55;8.13;;;4.93;;
36923;SDS011;22841;50.252;18.688;2023-08-30T05:36:21;8.20;;;4.70;;
36923;SDS011;22841;50.252;18.688;2023-08-30T05:38:47;6.75;;;5.18;;
36923;SDS011;22841;50.252;18.688;2023-08-30T05:41:13;8.30;;;5.03;;
36923;SDS011;22841;50.252;18.688;2023-08-30T05:43:39;9.70;;;4.60;;
36923;SDS011;22841;50.252;18.688;2023-08-30T05:46:05;7.70;;;5.45;;
36923;SDS011;22841;50.252;18.688;2023-08-30T05:48:37;5.85;;;3.88;;
36923;SDS011;22841;50.252;18.688;2023-08-30T05:51:03;6.25;;;4.63;;
36923;SDS011;22841;50.252;18.688;2023-08-30T05:53:29;11.35;;;4.20;;
36923;SDS011;22841;50.252;18.688;2023-08-30T05:55:55;7.20;;;4.13;;
36923;SDS011;22841;50.252;18.688;2023-08-30T05:58:21;6.47;;;3.80;;
36923;SDS011;22841;50.252;18.688;2023-08-30T06:00:47;7.53;;;4.38;;
36923;SDS011;22841;50.252;18.688;2023-08-30T06:03:15;8.25;;;4.53;;
36923;SDS011;22841;50.252;18.688;2023-08-30T06:05:41;14.52;;;5.53;;
36923;SDS011;22841;50.252;18.688;2023-08-30T06:08:08;7.43;;;4.35;;
36923;SDS011;22841;50.252;18.688;2023-08-30T06:10:35;10.00;;;4.55;;
36923;SDS011;22841;50.252;18.688;2023-08-30T06:13:01;11.65;;;3.80;;
36923;SDS011;22841;50.252;18.688;2023-08-30T06:15:28;10.73;;;4.50;;
36923;SDS011;22841;50.252;18.688;2023-08-30T06:17:54;7.03;;;3.92;;
36923;SDS011;22841;50.252;18.688;2023-08-30T06:20:20;6.22;;;3.38;;
36923;SDS011;22841;50.252;18.688;2023-08-30T06:22:47;9.43;;;3.60;;
36923;SDS011;22841;50.252;18.688;2023-08-30T06:25:13;5.28;;;3.03;;
36923;SDS011;22841;50.252;18.688;2023-08-30T06:27:41;5.13;;;3.25;;
36923;SDS011;22841;50.252;18.688;2023-08-30T06:30:09;6.68;;;3.78;;
36923;SDS011;22841;50.252;18.688;2023-08-30T06:32:36;6.68;;;3.30;;
36923;SDS011;22841;50.252;18.688;2023-08-30T06:35:02;3.78;;;2.70;;
36923;SDS011;22841;50.252;18.688;2023-08-30T06:37:29;6.13;;;2.90;;
36923;SDS011;22841;50.252;18.688;2023-08-30T06:39:55;4.47;;;3.25;;
36923;SDS011;22841;50.252;18.688;2023-08-30T06:42:21;5.47;;;2.97;;
36923;SDS011;22841;50.252;18.688;2023-08-30T06:44:48;8.02;;;3.47;;
36923;SDS011;22841;50.252;18.688;2023-08-30T06:47:14;11.50;;;3.25;;
36923;SDS011;22841;50.252;18.688;2023-08-30T06:49:40;4.97;;;3.30;;
36923;SDS011;22841;50.252;18.688;2023-08-30T06:52:06;7.38;;;3.60;;
36923;SDS011;22841;50.252;18.688;2023-08-30T06:54:34;8.02;;;4.25;;
36923;SDS011;22841;50.252;18.688;2023-08-30T06:57:01;9.80;;;4.93;;
36923;SDS011;22841;50.252;18.688;2023-08-30T06:59:27;8.45;;;4.30;;
36923;SDS011;22841;50.252;18.688;2023-08-30T07:01:54;11.90;;;5.22;;
36923;SDS011;22841;50.252;18.688;2023-08-30T07:04:20;8.80;;;4.97;;
36923;SDS011;22841;50.252;18.688;2023-08-30T07:06:46;10.82;;;5.18;;
36923;SDS011;22841;50.252;18.688;2023-08-30T07:09:12;7.32;;;4.65;;
36923;SDS011;22841;50.252;18.688;2023-08-30T07:11:41;9.38;;;5.10;;
36923;SDS011;22841;50.252;18.688;2023-08-30T07:14:09;9.43;;;5.03;;
36923;SDS011;22841;50.252;18.688;2023-08-30T07:16:36;19.38;;;5.50;;
36923;SDS011;22841;50.252;18.688;2023-08-30T07:19:02;12.65;;;4.60;;
36923;SDS011;22841;50.252;18.688;2023-08-30T07:21:28;6.85;;;4.55;;
36923;SDS011;22841;50.252;18.688;2023-08-30T07:23:54;6.88;;;3.35;;
36923;SDS011;22841;50.252;18.688;2023-08-30T07:26:20;9.27;;;3.90;;
36923;SDS011;22841;50.252;18.688;2023-08-30T07:28:47;8.90;;;3.63;;
36923;SDS011;22841;50.252;18.688;2023-08-30T07:31:13;4.88;;;3.20;;
36923;SDS011;22841;50.252;18.688;2023-08-30T07:33:40;8.02;;;3.35;;
36923;SDS011;22841;50.252;18.688;2023-08-30T07:36:07;5.50;;;3.10;;
36923;SDS011;22841;50.252;18.688;2023-08-30T07:38:34;3.38;;;3.05;;
36923;SDS011;22841;50.252;18.688;2023-08-30T07:41:00;7.45;;;2.63;;
36923;SDS011;22841;50.252;18.688;2023-08-30T07:43:27;3.72;;;2.72;;
36923;SDS011;22841;50.252;18.688;2023-08-30T07:45:53;5.22;;;2.70;;
36923;SDS011;22841;50.252;18.688;2023-08-30T07:48:19;6.18;;;2.30;;
36923;SDS011;22841;50.252;18.688;2023-08-30T07:50:45;3.50;;;2.40;;
36923;SDS011;22841;50.252;18.688;2023-08-30T07:53:11;2.97;;;2.53;;
36923;SDS011;22841;50.252;18.688;2023-08-30T07:55:37;6.25;;;2.78;;
36923;SDS011;22841;50.252;18.688;2023-08-30T07:58:03;3.30;;;2.72;;
36923;SDS011;22841;50.252;18.688;2023-08-30T08:00:30;3.58;;;2.60;;
36923;SDS011;22841;50.252;18.688;2023-08-30T08:02:56;4.40;;;2.67;;
36923;SDS011;22841;50.252;18.688;2023-08-30T08:05:22;2.20;;;2.00;;
36923;SDS011;22841;50.252;18.688;2023-08-30T08:07:51;4.03;;;3.20;;
36923;SDS011;22841;50.252;18.688;2023-08-30T08:10:18;5.45;;;2.53;;
36923;SDS011;22841;50.252;18.688;2023-08-30T08:12:45;5.18;;;2.83;;
36923;SDS011;22841;50.252;18.688;2023-08-30T08:15:11;3.20;;;2.97;;
36923;SDS011;22841;50.252;18.688;2023-08-30T08:17:37;3.15;;;2.60;;
36923;SDS011;22841;50.252;18.688;2023-08-30T08:20:04;5.82;;;3.20;;
36923;SDS011;22841;50.252;18.688;2023-08-30T08:22:31;3.63;;;2.80;;
36923;SDS011;22841;50.252;18.688;2023-08-30T08:24:57;3.85;;;2.10;;
36923;SDS011;22841;50.252;18.688;2023-08-30T08:27:26;2.47;;;1.65;;
36923;SDS011;22841;50.252;18.688;2023-08-30T08:29:52;1.75;;;1.65;;
36923;SDS011;22841;50.252;18.688;2023-08-30T08:32:18;3.75;;;1.13;;
36923;SDS011;22841;50.252;18.688;2023-08-30T08:34:45;1.65;;;1.42;;
36923;SDS011;22841;50.252;18.688;2023-08-30T08:37:11;1.55;;;1.30;;
36923;SDS011;22841;50.252;18.688;2023-08-30T08:39:39;3.95;;;1.83;;
36923;SDS011;22841;50.252;18.688;2023-08-30T08:42:05;1.50;;;1.40;;
36923;SDS011;22841;50.252;18.688;2023-08-30T08:44:31;3.08;;;1.55;;
36923;SDS011;22841;50.252;18.688;2023-08-30T08:46:58;2.35;;;1.48;;
36923;SDS011;22841;50.252;18.688;2023-08-30T08:49:25;1.90;;;1.80;;
36923;SDS011;22841;50.252;18.688;2023-08-30T08:51:54;4.50;;;2.17;;
36923;SDS011;22841;50.252;18.688;2023-08-30T08:54:20;2.35;;;1.90;;
36923;SDS011;22841;50.252;18.688;2023-08-30T08:56:47;4.65;;;2.40;;
36923;SDS011;22841;50.252;18.688;2023-08-30T08:59:14;2.38;;;2.25;;
36923;SDS011;22841;50.252;18.688;2023-08-30T09:01:40;3.58;;;3.10;;
36923;SDS011;22841;50.252;18.688;2023-08-30T09:04:06;2.55;;;2.35;;
36923;SDS011;22841;50.252;18.688;2023-08-30T09:06:34;3.13;;;2.83;;
36923;SDS011;22841;50.252;18.688;2023-08-30T09:09:01;4.97;;;4.35;;
36923;SDS011;22841;50.252;18.688;2023-08-30T09:11:29;3.65;;;3.15;;
36923;SDS011;22841;50.252;18.688;2023-08-30T09:13:56;3.95;;;2.65;;
36923;SDS011;22841;50.252;18.688;2023-08-30T09:16:22;5.60;;;3.30;;
36923;SDS011;22841;50.252;18.688;2023-08-30T09:19:09;4.57;;;3.45;;
36923;SDS011;22841;50.252;18.688;2023-08-30T09:21:36;3.10;;;2.55;;
36923;SDS011;22841;50.252;18.688;2023-08-30T09:24:03;2.22;;;2.03;;
36923;SDS011;22841;50.252;18.688;2023-08-30T09:26:30;3.85;;;3.40;;
36923;SDS011;22841;50.252;18.688;2023-08-30T09:29:01;5.72;;;3.80;;
36923;SDS011;22841;50.252;18.688;2023-08-30T09:34:54;4.50;;;4.10;;
36923;SDS011;22841;50.252;18.688;2023-08-30T09:37:35;6.60;;;5.15;;
36923;SDS011;22841;50.252;18.688;2023-08-30T09:40:01;4.75;;;4.05;;
36923;SDS011;22841;50.252;18.688;2023-08-30T09:42:27;4.85;;;3.42;;
36923;SDS011;22841;50.252;18.688;2023-08-30T09:44:54;3.67;;;2.83;;
36923;SDS011;22841;50.252;18.688;2023-08-30T09:47:23;2.05;;;1.85;;
36923;SDS011;22841;50.252;18.688;2023-08-30T09:49:52;2.33;;;2.13;;
36923;SDS011;22841;50.252;18.688;2023-08-30T09:52:20;3.80;;;1.88;;
36923;SDS011;22841;50.252;18.688;2023-08-30T09:54:49;7.78;;;4.03;;
36923;SDS011;22841;50.252;18.688;2023-08-30T09:57:16;5.63;;;2.38;;
36923;SDS011;22841;50.252;18.688;2023-08-30T09:59:42;5.50;;;4.22;;
36923;SDS011;22841;50.252;18.688;2023-08-30T10:02:09;3.13;;;2.65;;
36923;SDS011;22841;50.252;18.688;2023-08-30T10:04:37;1.70;;;1.60;;
36923;SDS011;22841;50.252;18.688;2023-08-30T10:07:07;3.97;;;1.55;;
36923;SDS011;22841;50.252;18.688;2023-08-30T10:09:34;2.20;;;1.20;;
36923;SDS011;22841;50.252;18.688;2023-08-30T10:12:03;1.42;;;1.33;;
36923;SDS011;22841;50.252;18.688;2023-08-30T10:14:31;3.95;;;2.00;;
36923;SDS011;22841;50.252;18.688;2023-08-30T10:17:03;3.00;;;2.70;;
36923;SDS011;22841;50.252;18.688;2023-08-30T10:19:31;2.35;;;2.15;;
36923;SDS011;22841;50.252;18.688;2023-08-30T10:22:03;2.88;;;1.90;;
36923;SDS011;22841;50.252;18.688;2023-08-30T10:24:39;4.80;;;2.20;;
36923;SDS011;22841;50.252;18.688;2023-08-30T10:27:08;3.75;;;2.58;;
36923;SDS011;22841;50.252;18.688;2023-08-30T10:29:36;2.53;;;2.33;;
36923;SDS011;22841;50.252;18.688;2023-08-30T10:32:04;3.00;;;2.63;;
36923;SDS011;22841;50.252;18.688;2023-08-30T10:34:32;3.38;;;1.55;;
36923;SDS011;22841;50.252;18.688;2023-08-30T10:37:02;5.43;;;3.35;;
36923;SDS011;22841;50.252;18.688;2023-08-30T10:42:09;6.13;;;3.35;;
36923;SDS011;22841;50.252;18.688;2023-08-30T10:44:49;5.43;;;3.80;;
36923;SDS011;22841;50.252;18.688;2023-08-30T10:47:28;3.83;;;3.53;;
36923;SDS011;22841;50.252;18.688;2023-08-30T10:50:06;4.60;;;3.95;;
36923;SDS011;22841;50.252;18.688;2023-08-30T10:55:04;2.70;;;2.50;;
36923;SDS011;22841;50.252;18.688;2023-08-30T10:57:34;3.90;;;3.60;;
36923;SDS011;22841;50.252;18.688;2023-08-30T11:02:44;3.65;;;3.35;;
36923;SDS011;22841;50.252;18.688;2023-08-30T11:05:14;3.90;;;3.60;;
36923;SDS011;22841;50.252;18.688;2023-08-30T11:07:43;5.20;;;4.70;;
36923;SDS011;22841;50.252;18.688;2023-08-30T11:10:09;6.68;;;3.88;;
36923;SDS011;22841;50.252;18.688;2023-08-30T11:12:37;4.50;;;4.10;;
36923;SDS011;22841;50.252;18.688;2023-08-30T11:15:12;5.13;;;4.53;;
36923;SDS011;22841;50.252;18.688;2023-08-30T11:17:39;4.35;;;3.88;;
36923;SDS011;22841;50.252;18.688;2023-08-30T11:20:10;6.43;;;4.43;;
36923;SDS011;22841;50.252;18.688;2023-08-30T11:22:45;6.97;;;4.20;;
36923;SDS011;22841;50.252;18.688;2023-08-30T11:25:12;5.03;;;4.63;;
36923;SDS011;22841;50.252;18.688;2023-08-30T11:27:39;5.57;;;5.07;;
36923;SDS011;22841;50.252;18.688;2023-08-30T11:30:06;7.07;;;6.03;;
36923;SDS011;22841;50.252;18.688;2023-08-30T11:32:37;6.03;;;5.53;;
36923;SDS011;22841;50.252;18.688;2023-08-30T11:35:05;5.50;;;5.00;;
36923;SDS011;22841;50.252;18.688;2023-08-30T11:37:32;7.07;;;4.88;;
36923;SDS011;22841;50.252;18.688;2023-08-30T11:39:58;7.28;;;5.20;;
36923;SDS011;22841;50.252;18.688;2023-08-30T11:42:26;5.72;;;5.22;;
36923;SDS011;22841;50.252;18.688;2023-08-30T11:44:52;6.80;;;6.10;;
36923;SDS011;22841;50.252;18.688;2023-08-30T11:47:20;6.25;;;5.05;;
36923;SDS011;22841;50.252;18.688;2023-08-30T11:49:57;7.55;;;5.57;;
36923;SDS011;22841;50.252;18.688;2023-08-30T11:52:25;7.28;;;6.15;;
36923;SDS011;22841;50.252;18.688;2023-08-30T11:54:52;11.38;;;6.82;;
36923;SDS011;22841;50.252;18.688;2023-08-30T11:57:19;7.75;;;6.60;;
36923;SDS011;22841;50.252;18.688;2023-08-30T11:59:49;9.70;;;7.65;;
36923;SDS011;22841;50.252;18.688;2023-08-30T12:02:16;7.63;;;6.93;;
36923;SDS011;22841;50.252;18.688;2023-08-30T12:04:44;9.85;;;7.40;;
36923;SDS011;22841;50.252;18.688;2023-08-30T12:07:24;8.82;;;7.95;;
36923;SDS011;22841;50.252;18.688;2023-08-30T12:09:51;8.50;;;7.63;;
36923;SDS011;22841;50.252;18.688;2023-08-30T12:12:17;12.25;;;9.48;;
36923;SDS011;22841;50.252;18.688;2023-08-30T12:14:43;11.20;;;10.07;;
36923;SDS011;22841;50.252;18.688;2023-08-30T12:17:10;11.90;;;10.70;;
36923;SDS011;22841;50.252;18.688;2023-08-30T12:19:37;14.88;;;10.30;;
36923;SDS011;22841;50.252;18.688;2023-08-30T12:22:08;10.93;;;9.75;;
36923;SDS011;22841;50.252;18.688;2023-08-30T12:24:44;11.95;;;10.63;;
36923;SDS011;22841;50.252;18.688;2023-08-30T12:27:10;11.27;;;9.38;;
36923;SDS011;22841;50.252;18.688;2023-08-30T12:29:37;12.60;;;10.68;;
36923;SDS011;22841;50.252;18.688;2023-08-30T12:32:03;11.98;;;9.52;;
36923;SDS011;22841;50.252;18.688;2023-08-30T12:34:29;13.80;;;10.02;;
36923;SDS011;22841;50.252;18.688;2023-08-30T12:36:57;9.35;;;8.35;;
36923;SDS011;22841;50.252;18.688;2023-08-30T12:39:36;9.80;;;8.80;;
36923;SDS011;22841;50.252;18.688;2023-08-30T12:42:59;12.00;;;10.43;;
36923;SDS011;22841;50.252;18.688;2023-08-30T12:45:25;10.98;;;9.68;;
36923;SDS011;22841;50.252;18.688;2023-08-30T12:47:51;10.52;;;9.45;;
36923;SDS011;22841;50.252;18.688;2023-08-30T12:50:17;10.52;;;9.45;;
36923;SDS011;22841;50.252;18.688;2023-08-30T12:52:43;11.63;;;10.32;;
36923;SDS011;22841;50.252;18.688;2023-08-30T12:55:09;11.25;;;10.05;;
36923;SDS011;22841;50.252;18.688;2023-08-30T12:57:35;11.45;;;8.73;;
36923;SDS011;22841;50.252;18.688;2023-08-30T13:00:01;12.05;;;9.20;;
36923;SDS011;22841;50.252;18.688;2023-08-30T13:02:28;10.73;;;9.60;;
36923;SDS011;22841;50.252;18.688;2023-08-30T13:04:54;10.60;;;9.38;;
36923;SDS011;22841;50.252;18.688;2023-08-30T13:07:20;14.73;;;11.13;;
36923;SDS011;22841;50.252;18.688;2023-08-30T13:09:46;12.93;;;10.57;;
36923;SDS011;22841;50.252;18.688;2023-08-30T13:12:12;12.13;;;9.82;;
36923;SDS011;22841;50.252;18.688;2023-08-30T13:14:38;10.98;;;9.90;;
36923;SDS011;22841;50.252;18.688;2023-08-30T13:17:04;13.63;;;9.65;;
36923;SDS011;22841;50.252;18.688;2023-08-30T13:19:30;11.68;;;9.35;;
36923;SDS011;22841;50.252;18.688;2023-08-30T13:21:56;11.20;;;8.82;;
36923;SDS011;22841;50.252;18.688;2023-08-30T13:24:23;11.18;;;9.25;;
36923;SDS011;22841;50.252;18.688;2023-08-30T13:26:49;13.20;;;9.57;;
36923;SDS011;22841;50.252;18.688;2023-08-30T13:29:15;9.93;;;8.93;;
36923;SDS011;22841;50.252;18.688;2023-08-30T13:31:41;12.70;;;9.27;;
36923;SDS011;22841;50.252;18.688;2023-08-30T13:34:07;10.73;;;9.02;;
36923;SDS011;22841;50.252;18.688;2023-08-30T13:36:33;12.52;;;9.70;;
36923;SDS011;22841;50.252;18.688;2023-08-30T13:39:02;10.32;;;8.20;;
36923;SDS011;22841;50.252;18.688;2023-08-30T13:41:28;8.35;;;7.45;;
36923;SDS011;22841;50.252;18.688;2023-08-30T13:43:54;9.02;;;7.35;;
36923;SDS011;22841;50.252;18.688;2023-08-30T13:46:20;8.55;;;7.75;;
36923;SDS011;22841;50.252;18.688;2023-08-30T13:48:46;9.32;;;8.43;;
36923;SDS011;22841;50.252;18.688;2023-08-30T13:51:13;9.95;;;7.78;;
36923;SDS011;22841;50.252;18.688;2023-08-30T13:53:39;10.02;;;8.15;;
36923;SDS011;22841;50.252;18.688;2023-08-30T13:56:05;9.43;;;8.40;;
36923;SDS011;22841;50.252;18.688;2023-08-30T13:58:31;13.65;;;7.78;;
36923;SDS011;22841;50.252;18.688;2023-08-30T14:00:57;12.90;;;8.70;;
36923;SDS011;22841;50.252;18.688;2023-08-30T14:03:24;10.77;;;8.48;;
36923;SDS011;22841;50.252;18.688;2023-08-30T14:05:50;9.90;;;7.60;;
36923;SDS011;22841;50.252;18.688;2023-08-30T14:08:17;12.63;;;7.72;;
36923;SDS011;22841;50.252;18.688;2023-08-30T14:10:44;11.88;;;8.07;;
36923;SDS011;22841;50.252;18.688;2023-08-30T14:13:10;12.35;;;7.50;;
36923;SDS011;22841;50.252;18.688;2023-08-30T14:15:36;11.07;;;7.65;;
36923;SDS011;22841;50.252;18.688;2023-08-30T14:18:02;11.15;;;7.43;;
36923;SDS011;22841;50.252;18.688;2023-08-30T14:20:34;12.15;;;9.30;;
36923;SDS011;22841;50.252;18.688;2023-08-30T14:24:00;14.32;;;8.27;;
36923;SDS011;22841;50.252;18.688;2023-08-30T14:26:27;10.95;;;8.30;;
36923;SDS011;22841;50.252;18.688;2023-08-30T14:29:07;11.75;;;9.18;;
36923;SDS011;22841;50.252;18.688;2023-08-30T14:31:34;15.40;;;8.55;;
36923;SDS011;22841;50.252;18.688;2023-08-30T14:34:00;13.63;;;8.57;;
36923;SDS011;22841;50.252;18.688;2023-08-30T14:36:26;12.00;;;8.80;;
36923;SDS011;22841;50.252;18.688;2023-08-30T14:38:52;11.20;;;8.65;;
36923;SDS011;22841;50.252;18.688;2023-08-30T14:41:19;12.52;;;8.50;;
36923;SDS011;22841;50.252;18.688;2023-08-30T14:43:45;12.18;;;8.57;;
36923;SDS011;22841;50.252;18.688;2023-08-30T14:46:11;12.45;;;8.45;;
36923;SDS011;22841;50.252;18.688;2023-08-30T14:48:37;13.55;;;7.97;;
36923;SDS011;22841;50.252;18.688;2023-08-30T14:51:04;11.63;;;7.57;;